createdAt,value
2022-08-16T00:02:33.098Z,32.08
2022-08-16T00:05:02.049Z,31.35
2022-08-16T00:07:31.077Z,31.98
2022-08-16T00:10:00.008Z,28.70
2022-08-16T00:12:31.349Z,27.83
2022-08-16T00:15:02.357Z,30.27
2022-08-16T00:17:30.503Z,29.13
2022-08-16T00:20:20.919Z,25.27
2022-08-16T00:22:51.834Z,24.48
2022-08-16T00:26:35.627Z,25.15
2022-08-16T00:28:12.696Z,26.42
2022-08-16T00:30:41.458Z,28.65
2022-08-16T00:33:10.678Z,25.75
2022-08-16T00:35:40.359Z,24.90
2022-08-16T00:38:40.162Z,28.05
2022-08-16T00:41:01.822Z,26.25
2022-08-16T00:43:40.759Z,24.38
2022-08-16T00:46:33.422Z,26.75
2022-08-16T00:51:55.741Z,24.55
2022-08-16T00:54:27.294Z,23.15
2022-08-16T00:56:59.881Z,25.15
2022-08-16T00:59:34.311Z,24.75
2022-08-16T01:02:30.719Z,24.55
2022-08-16T01:05:10.337Z,27.17
2022-08-16T01:07:49.739Z,22.63
2022-08-16T01:10:21.090Z,23.52
2022-08-16T01:13:01.693Z,25.48
2022-08-16T01:15:35.129Z,24.17
2022-08-16T01:18:05.814Z,24.83
2022-08-16T01:20:39.047Z,22.83
2022-08-16T01:23:17.809Z,23.52
2022-08-16T01:25:59.694Z,23.80
2022-08-16T01:28:45.374Z,23.23
2022-08-16T01:31:15.949Z,23.27
2022-08-16T01:33:44.414Z,25.08
2022-08-16T01:36:13.447Z,25.55
2022-08-16T01:38:47.140Z,23.60
2022-08-16T01:41:25.245Z,24.42
2022-08-16T01:47:06.434Z,24.92
2022-08-16T01:49:45.458Z,24.08
2022-08-16T01:52:28.271Z,24.02
2022-08-16T01:54:59.489Z,28.05
2022-08-16T01:57:31.468Z,24.50
2022-08-16T02:00:00.415Z,24.83
2022-08-16T02:02:30.729Z,25.23
2022-08-16T02:05:00.492Z,26.15
2022-08-16T02:07:30.675Z,25.67
2022-08-16T02:10:02.008Z,26.17
2022-08-16T02:12:49.610Z,26.63
2022-08-16T02:15:24.761Z,24.95
2022-08-16T02:17:54.015Z,28.38
2022-08-16T02:20:26.452Z,30.08
2022-08-16T02:22:56.530Z,25.55
2022-08-16T02:25:25.532Z,27.73
2022-08-16T02:28:17.455Z,27.63
2022-08-16T02:31:22.030Z,27.80
2022-08-16T02:34:15.235Z,28.50
2022-08-16T02:36:49.770Z,28.85
2022-08-16T02:39:20.280Z,29.25
2022-08-16T02:41:53.625Z,29.92
2022-08-16T02:44:23.414Z,30.70
2022-08-16T02:46:55.259Z,31.50
2022-08-16T02:49:58.674Z,28.50
2022-08-16T02:52:24.401Z,31.13
2022-08-16T02:54:55.395Z,29.08
2022-08-16T02:57:23.975Z,30.08
2022-08-16T02:59:53.732Z,28.80
2022-08-16T03:02:31.743Z,28.58
2022-08-16T03:05:00.617Z,29.80
2022-08-16T03:07:30.061Z,31.15
2022-08-16T03:10:19.665Z,31.13
2022-08-16T03:12:56.265Z,30.48
2022-08-16T03:15:27.621Z,29.17
2022-08-16T03:17:56.529Z,29.65
2022-08-16T03:20:32.573Z,32.47
2022-08-16T03:23:01.692Z,30.17
2022-08-16T03:25:43.099Z,28.98
2022-08-16T03:28:13.277Z,32.25
2022-08-16T03:30:43.943Z,32.15
2022-08-16T03:33:12.108Z,30.25
2022-08-16T03:35:41.990Z,30.00
2022-08-16T03:38:33.158Z,30.92
2022-08-16T03:41:02.957Z,37.65
2022-08-16T03:43:51.034Z,31.75
2022-08-16T03:46:47.218Z,32.50
2022-08-16T03:49:10.788Z,33.63
2022-08-16T03:51:41.806Z,35.50
2022-08-16T03:54:12.113Z,36.58
2022-08-16T03:56:57.842Z,33.13
2022-08-16T03:59:29.525Z,34.63
2022-08-16T04:02:01.171Z,33.78
2022-08-16T04:04:32.983Z,36.20
2022-08-16T04:07:02.756Z,34.80
2022-08-16T04:09:31.337Z,34.22
2022-08-16T04:12:04.703Z,34.30
2022-08-16T04:14:46.426Z,39.05
2022-08-16T04:17:17.046Z,38.72
2022-08-16T04:19:46.689Z,36.92
2022-08-16T04:22:17.210Z,34.20
2022-08-16T04:24:54.789Z,35.90
2022-08-16T04:27:24.542Z,36.38
2022-08-16T04:30:02.751Z,34.63
2022-08-16T04:32:33.382Z,38.90
2022-08-16T04:35:08.465Z,34.47
2022-08-16T04:37:42.278Z,34.13
2022-08-16T04:40:21.709Z,38.38
2022-08-16T04:42:53.514Z,36.13
2022-08-16T04:45:35.690Z,38.25
2022-08-16T04:48:07.696Z,39.45
2022-08-16T04:50:39.566Z,37.47
2022-08-16T04:53:12.164Z,35.78
2022-08-16T04:55:44.664Z,37.28
2022-08-16T04:58:44.058Z,33.85
2022-08-16T05:01:01.624Z,36.72
2022-08-16T05:03:32.177Z,33.30
2022-08-16T05:06:07.104Z,31.75
2022-08-16T05:08:37.781Z,30.85
2022-08-16T05:11:09.246Z,30.15
2022-08-16T05:13:41.567Z,28.13
2022-08-16T05:16:19.822Z,31.65
2022-08-16T05:18:53.861Z,31.90
2022-08-16T05:21:26.870Z,27.13
2022-08-16T05:24:00.190Z,27.65
2022-08-16T05:26:31.758Z,28.77
2022-08-16T05:29:06.966Z,30.25
2022-08-16T05:31:47.926Z,31.50
2022-08-16T05:34:21.359Z,26.95
2022-08-16T05:36:51.152Z,30.38
2022-08-16T05:39:22.269Z,30.15
2022-08-16T05:41:51.866Z,28.05
2022-08-16T05:44:22.407Z,28.20
2022-08-16T05:46:56.989Z,28.98
2022-08-16T05:49:38.444Z,32.95
2022-08-16T05:52:10.842Z,25.33
2022-08-16T05:54:46.646Z,33.05
2022-08-16T05:57:16.022Z,25.35
2022-08-16T05:59:45.513Z,22.52
2022-08-16T06:02:14.908Z,21.52
2022-08-16T06:04:45.155Z,21.15
2022-08-16T06:07:24.827Z,32.45
2022-08-16T06:09:56.310Z,19.60
2022-08-16T06:12:27.457Z,19.67
2022-08-16T06:14:59.863Z,20.73
2022-08-16T06:17:43.319Z,26.20
2022-08-16T06:20:18.480Z,19.58
2022-08-16T06:22:58.781Z,21.00
2022-08-16T06:25:36.284Z,19.85
2022-08-16T06:28:09.460Z,26.13
2022-08-16T06:30:44.160Z,21.02
2022-08-16T06:33:22.222Z,22.63
2022-08-16T06:35:55.083Z,30.48
2022-08-16T06:38:33.947Z,23.88
2022-08-16T06:41:05.580Z,26.45
2022-08-16T06:43:35.405Z,23.92
2022-08-16T06:46:06.165Z,22.00
2022-08-16T06:48:43.180Z,23.30
2022-08-16T06:51:14.846Z,25.60
2022-08-16T06:53:43.248Z,21.45
2022-08-16T06:56:14.940Z,22.33
2022-08-16T06:58:52.566Z,26.65
2022-08-16T07:01:43.211Z,21.90
2022-08-16T07:04:11.828Z,29.52
2022-08-16T07:06:43.232Z,19.67
2022-08-16T07:09:12.423Z,19.48
2022-08-16T07:11:46.018Z,15.98
2022-08-16T07:14:24.994Z,15.20
2022-08-16T07:16:57.950Z,16.85
2022-08-16T07:20:03.598Z,14.23
2022-08-16T07:22:38.576Z,14.63
2022-08-16T07:25:07.760Z,26.30
2022-08-16T07:27:40.159Z,21.63
2022-08-16T07:30:45.266Z,24.52
2022-08-16T07:33:02.254Z,14.40
2022-08-16T07:35:33.965Z,14.18
2022-08-16T07:38:04.221Z,19.08
2022-08-16T07:40:59.567Z,14.13
2022-08-16T07:43:22.810Z,10.85
2022-08-16T07:45:53.275Z,14.25
2022-08-16T07:48:21.956Z,12.82
2022-08-16T07:51:05.264Z,13.48
2022-08-16T07:54:39.244Z,16.35
2022-08-16T07:57:16.153Z,12.18
2022-08-16T07:59:47.243Z,20.27
2022-08-16T08:02:19.794Z,11.65
2022-08-16T08:04:49.626Z,14.15
2022-08-16T08:07:18.029Z,11.07
2022-08-16T08:09:49.119Z,10.32
2022-08-16T08:12:32.067Z,13.88
2022-08-16T08:15:34.241Z,16.50
2022-08-16T08:18:29.942Z,13.55
2022-08-16T08:20:59.396Z,13.13
2022-08-16T08:23:28.288Z,12.48
2022-08-16T08:25:56.511Z,11.98
2022-08-16T08:28:26.519Z,13.60
2022-08-16T08:31:01.317Z,11.40
2022-08-16T08:33:31.401Z,11.45
2022-08-16T08:36:01.440Z,27.42
2022-08-16T08:38:45.198Z,13.95
2022-08-16T08:41:15.479Z,25.08
2022-08-16T08:43:50.490Z,19.35
2022-08-16T08:46:21.446Z,13.18
2022-08-16T08:48:59.806Z,12.20
2022-08-16T08:51:35.709Z,12.68
2022-08-16T08:54:06.943Z,9.07
2022-08-16T08:56:45.568Z,9.10
2022-08-16T08:59:20.029Z,10.15
2022-08-16T09:01:57.118Z,16.65
2022-08-16T09:04:27.409Z,11.10
2022-08-16T09:06:55.949Z,10.10
2022-08-16T09:09:26.584Z,12.43
2022-08-16T09:12:06.614Z,8.63
2022-08-16T09:14:39.516Z,8.18
2022-08-16T09:17:45.398Z,15.57
2022-08-16T09:20:09.367Z,8.13
2022-08-16T09:22:43.038Z,8.63
2022-08-16T09:25:14.675Z,10.73
2022-08-16T09:27:56.498Z,8.55
2022-08-16T09:30:32.616Z,9.15
2022-08-16T09:33:03.613Z,9.07
2022-08-16T09:35:37.321Z,13.40
2022-08-16T09:38:08.387Z,13.70
2022-08-16T09:40:42.802Z,16.13
2022-08-16T09:43:46.335Z,7.45
2022-08-16T09:46:49.075Z,7.75
2022-08-16T09:48:58.452Z,15.93
2022-08-16T09:51:36.907Z,10.70
2022-08-16T09:54:06.274Z,8.98
2022-08-16T09:56:52.370Z,6.18
2022-08-16T09:59:25.877Z,7.00
2022-08-16T10:02:27.215Z,6.22
2022-08-16T10:04:54.307Z,3.83
2022-08-16T10:07:23.547Z,5.05
2022-08-16T10:09:55.104Z,4.30
2022-08-16T10:12:43.763Z,8.75
2022-08-16T10:15:15.700Z,5.18
2022-08-16T10:18:01.616Z,6.75
2022-08-16T10:20:34.597Z,4.25
2022-08-16T10:23:07.146Z,5.60
2022-08-16T10:27:20.324Z,5.15
2022-08-16T10:28:29.723Z,5.70
2022-08-16T10:31:00.069Z,7.80
2022-08-16T10:33:33.521Z,4.30
2022-08-16T10:36:03.875Z,7.38
2022-08-16T10:38:36.665Z,4.20
2022-08-16T10:41:07.131Z,5.03
2022-08-16T10:43:36.563Z,5.72
2022-08-16T10:46:39.141Z,20.80
2022-08-16T10:49:01.042Z,10.50
2022-08-16T10:52:00.707Z,5.18
2022-08-16T10:54:28.849Z,16.30
2022-08-16T10:56:58.475Z,4.63
2022-08-16T10:59:32.785Z,5.28
2022-08-16T11:03:37.517Z,8.10
2022-08-16T11:05:08.753Z,6.18
2022-08-16T11:07:52.044Z,9.75
2022-08-16T11:19:06.002Z,10.95
2022-08-16T11:24:41.871Z,10.13
2022-08-16T11:27:23.398Z,5.15
2022-08-16T11:29:55.285Z,7.63
2022-08-16T11:32:31.864Z,7.15
2022-08-16T11:35:13.954Z,5.38
2022-08-16T11:40:40.747Z,11.68
2022-08-16T11:43:13.091Z,8.30
2022-08-16T11:45:53.541Z,5.78
2022-08-16T11:48:23.396Z,6.65
2022-08-16T11:50:52.049Z,7.55
2022-08-16T11:53:22.114Z,5.63
2022-08-16T11:55:55.061Z,2.45
2022-08-16T11:58:24.533Z,9.27
2022-08-16T12:00:53.697Z,5.72
2022-08-16T12:03:34.957Z,8.75
2022-08-16T12:06:10.904Z,18.63
2022-08-16T12:08:41.710Z,7.75
2022-08-16T12:11:11.938Z,4.32
2022-08-16T12:13:40.828Z,4.05
2022-08-16T12:16:10.129Z,5.25
2022-08-16T12:18:40.183Z,11.05
2022-08-16T12:21:09.783Z,9.65
2022-08-16T12:23:39.977Z,5.57
2022-08-16T12:26:10.615Z,10.50
2022-08-16T12:28:54.305Z,4.85
2022-08-16T12:31:24.803Z,13.80
2022-08-16T12:33:54.164Z,15.00
2022-08-16T12:36:24.448Z,5.10
2022-08-16T12:38:55.154Z,10.40
2022-08-16T12:41:25.573Z,4.68
2022-08-16T12:43:56.868Z,4.57
2022-08-16T12:46:26.818Z,7.18
2022-08-16T12:48:59.827Z,3.08
2022-08-16T12:51:57.650Z,6.10
2022-08-16T12:54:22.947Z,4.25
2022-08-16T12:56:51.467Z,4.85
2022-08-16T12:59:21.690Z,8.68
2022-08-16T13:01:58.013Z,2.50
2022-08-16T13:04:27.992Z,2.20
2022-08-16T13:09:48.869Z,3.15
2022-08-16T13:12:20.027Z,7.35
2022-08-16T13:14:50.371Z,9.40
2022-08-16T13:17:21.378Z,4.50
2022-08-16T13:20:08.252Z,5.95
2022-08-16T13:22:38.036Z,3.58
2022-08-16T13:25:10.269Z,2.53
2022-08-16T13:28:03.338Z,2.97
2022-08-16T13:30:36.410Z,3.63
2022-08-16T13:33:11.505Z,9.93
2022-08-16T13:35:42.919Z,3.83
2022-08-16T13:38:24.237Z,2.50
2022-08-16T13:40:56.659Z,5.72
2022-08-16T13:43:26.368Z,3.08
2022-08-16T13:45:56.283Z,3.15
2022-08-16T13:48:26.034Z,4.40
2022-08-16T13:50:54.999Z,2.88
2022-08-16T13:53:25.523Z,3.75
2022-08-16T13:55:59.085Z,2.65
2022-08-16T13:58:36.404Z,16.88
2022-08-16T14:01:09.848Z,7.13
2022-08-16T14:03:39.681Z,3.65
2022-08-16T14:06:10.505Z,3.60
2022-08-16T14:08:42.118Z,4.13
2022-08-16T14:11:14.422Z,6.50
2022-08-16T14:13:44.242Z,5.43
2022-08-16T14:16:24.238Z,2.70
2022-08-16T14:18:58.558Z,4.80
2022-08-16T14:21:26.725Z,5.97
2022-08-16T14:24:12.715Z,8.52
2022-08-16T14:26:52.709Z,7.72
2022-08-16T14:29:21.378Z,4.22
2022-08-16T14:31:54.156Z,6.00
2022-08-16T14:34:25.533Z,4.68
2022-08-16T14:36:58.153Z,4.15
2022-08-16T14:39:26.859Z,4.95
2022-08-16T14:41:56.886Z,4.38
2022-08-16T14:44:26.287Z,5.03
2022-08-16T14:46:56.425Z,3.65
2022-08-16T14:49:25.167Z,19.15
2022-08-16T14:51:53.400Z,2.30
2022-08-16T14:54:22.390Z,4.38
2022-08-16T14:56:58.444Z,3.53
2022-08-16T14:59:27.312Z,2.60
2022-08-16T15:02:00.724Z,3.75
2022-08-16T15:04:39.506Z,4.00
2022-08-16T15:07:10.796Z,5.22
2022-08-16T15:09:44.512Z,5.75
2022-08-16T15:12:34.056Z,3.10
2022-08-16T15:15:12.424Z,5.10
2022-08-16T15:17:55.944Z,2.45
2022-08-16T15:20:29.243Z,8.73
2022-08-16T15:23:00.595Z,6.93
2022-08-16T15:25:31.784Z,7.78
2022-08-16T15:28:04.595Z,5.80
2022-08-16T15:30:58.450Z,5.20
2022-08-16T15:33:28.141Z,4.90
2022-08-16T15:35:58.149Z,5.20
2022-08-16T15:38:43.524Z,3.60
2022-08-16T15:41:45.294Z,2.65
2022-08-16T15:44:22.152Z,4.40
2022-08-16T15:46:55.869Z,7.80
2022-08-16T15:49:37.497Z,11.50
2022-08-16T15:52:20.588Z,15.77
2022-08-16T15:54:53.350Z,19.35
2022-08-16T15:57:24.457Z,12.30
2022-08-16T15:59:55.659Z,21.75
2022-08-16T16:02:29.106Z,21.98
2022-08-16T16:05:01.818Z,21.05
2022-08-16T16:07:32.147Z,23.40
2022-08-16T16:10:06.188Z,22.35
2022-08-16T16:12:54.432Z,23.33
2022-08-16T16:15:34.089Z,22.90
2022-08-16T16:18:09.699Z,25.10
2022-08-16T16:20:39.687Z,20.38
2022-08-16T16:23:10.817Z,21.90
2022-08-16T16:25:43.926Z,23.65
2022-08-16T16:29:05.799Z,24.88
2022-08-16T16:31:05.794Z,22.65
2022-08-16T16:33:38.378Z,27.10
2022-08-16T16:36:09.805Z,25.38
2022-08-16T16:38:41.976Z,24.02
2022-08-16T16:41:11.357Z,23.55
2022-08-16T16:43:41.895Z,23.55
2022-08-16T16:46:42.838Z,22.02
2022-08-16T16:49:04.009Z,20.17
2022-08-16T16:51:40.778Z,23.17
2022-08-16T16:54:12.943Z,22.00
2022-08-16T16:56:45.926Z,22.38
2022-08-16T16:59:20.062Z,20.95
2022-08-16T17:01:59.481Z,20.08
2022-08-16T17:04:32.065Z,19.13
2022-08-16T17:07:02.696Z,19.58
2022-08-16T17:09:32.228Z,19.95
2022-08-16T17:12:00.523Z,20.55
2022-08-16T17:14:33.482Z,19.77
2022-08-16T17:17:13.175Z,18.73
2022-08-16T17:19:42.483Z,19.60
2022-08-16T17:22:14.842Z,19.35
2022-08-16T17:24:50.743Z,18.65
2022-08-16T17:27:37.483Z,15.60
2022-08-16T17:30:16.082Z,17.98
2022-08-16T17:32:50.570Z,15.98
2022-08-16T17:35:34.260Z,19.45
2022-08-16T17:38:06.347Z,19.70
2022-08-16T17:40:46.809Z,16.33
2022-08-16T17:43:23.185Z,15.90
2022-08-16T17:45:51.636Z,15.77
2022-08-16T17:48:21.609Z,21.67
2022-08-16T17:50:54.453Z,16.65
2022-08-16T17:53:24.027Z,16.55
2022-08-16T17:55:54.479Z,14.85
2022-08-16T17:58:24.405Z,16.77
2022-08-16T18:00:55.926Z,15.43
2022-08-16T18:04:02.923Z,14.57
2022-08-16T18:06:18.728Z,14.00
2022-08-16T18:08:48.534Z,13.70
2022-08-16T18:11:25.987Z,13.00
2022-08-16T18:13:55.793Z,14.30
2022-08-16T18:16:24.417Z,12.43
2022-08-16T18:18:54.371Z,12.05
2022-08-16T18:21:42.429Z,12.18
2022-08-16T18:24:13.023Z,13.27
2022-08-16T18:26:42.655Z,13.10
2022-08-16T18:29:11.247Z,13.43
2022-08-16T18:31:40.359Z,15.68
2022-08-16T18:34:11.260Z,13.82
2022-08-16T18:36:39.442Z,13.95
2022-08-16T18:39:07.684Z,15.45
2022-08-16T18:41:38.519Z,16.00
2022-08-16T18:44:23.201Z,15.77
2022-08-16T18:46:55.332Z,16.13
2022-08-16T18:49:25.078Z,15.63
2022-08-16T18:51:58.129Z,14.70
2022-08-16T18:54:28.183Z,15.45
2022-08-16T18:56:58.236Z,13.43
2022-08-16T18:59:30.016Z,15.13
2022-08-16T19:02:00.274Z,15.55
2022-08-16T19:04:55.474Z,14.93
2022-08-16T19:07:30.473Z,14.30
2022-08-16T19:10:00.423Z,13.77
2022-08-16T19:12:38.604Z,13.07
2022-08-16T19:15:15.645Z,13.80
2022-08-16T19:17:45.127Z,13.32
2022-08-16T19:20:16.720Z,13.27
2022-08-16T19:23:05.405Z,14.90
2022-08-16T19:25:46.150Z,15.23
2022-08-16T19:28:49.013Z,14.70
2022-08-16T19:31:10.804Z,16.23
2022-08-16T19:33:39.643Z,15.85
2022-08-16T19:36:17.011Z,16.17
2022-08-16T19:38:58.858Z,16.77
2022-08-16T19:41:33.817Z,14.85
2022-08-16T19:44:02.100Z,18.13
2022-08-16T19:46:30.365Z,16.95
2022-08-16T19:48:58.562Z,16.08
2022-08-16T19:51:28.430Z,16.23
2022-08-16T19:53:56.707Z,17.05
2022-08-16T19:56:26.759Z,17.13
2022-08-16T19:59:18.860Z,16.85
2022-08-16T20:01:45.008Z,16.42
2022-08-16T20:04:13.509Z,15.43
2022-08-16T20:06:43.863Z,16.33
2022-08-16T20:09:15.056Z,14.82
2022-08-16T20:11:45.198Z,14.75
2022-08-16T20:14:24.802Z,15.20
2022-08-16T20:19:29.174Z,16.05
2022-08-16T20:22:06.126Z,18.08
2022-08-16T20:24:36.600Z,16.73
2022-08-16T20:27:06.506Z,18.73
2022-08-16T20:29:35.014Z,16.35
2022-08-16T20:32:03.422Z,16.85
2022-08-16T20:34:31.973Z,16.35
2022-08-16T20:37:01.565Z,16.92
2022-08-16T20:39:29.908Z,16.95
2022-08-16T20:41:58.304Z,17.45
2022-08-16T20:44:26.705Z,16.00
2022-08-16T20:46:54.864Z,16.60
2022-08-16T20:49:23.297Z,16.20
2022-08-16T20:51:55.926Z,24.88
2022-08-16T20:54:28.699Z,18.75
2022-08-16T20:56:56.989Z,20.08
2022-08-16T20:59:25.290Z,19.45
2022-08-16T21:01:53.761Z,18.23
2022-08-16T21:04:23.388Z,18.58
2022-08-16T21:06:53.410Z,18.98
2022-08-16T21:09:24.530Z,25.00
2022-08-16T21:11:57.036Z,19.58
2022-08-16T21:14:25.532Z,23.13
2022-08-16T21:16:55.047Z,21.00
2022-08-16T21:19:23.474Z,20.58
2022-08-16T21:21:51.646Z,21.25
2022-08-16T21:24:20.088Z,23.23
2022-08-16T21:26:56.028Z,20.58
2022-08-16T21:29:39.644Z,21.88
2022-08-16T21:32:14.557Z,23.33
2022-08-16T21:34:43.591Z,24.63
2022-08-16T21:37:15.454Z,26.45
2022-08-16T21:39:44.585Z,27.13
2022-08-16T21:42:15.565Z,26.02
2022-08-16T21:44:45.813Z,26.88
2022-08-16T21:47:14.010Z,26.55
2022-08-16T21:49:42.557Z,27.13
2022-08-16T21:52:25.943Z,27.52
2022-08-16T21:54:57.087Z,25.58
2022-08-16T21:57:25.649Z,26.17
2022-08-16T21:59:56.357Z,27.95
2022-08-16T22:02:27.902Z,29.05
2022-08-16T22:05:05.368Z,26.88
2022-08-16T22:07:33.560Z,30.08
2022-08-16T22:10:05.952Z,28.90
2022-08-16T22:12:51.047Z,33.08
2022-08-16T22:15:25.617Z,28.95
2022-08-16T22:17:56.208Z,35.92
2022-08-16T22:20:25.867Z,32.60
2022-08-16T22:23:04.468Z,28.27
2022-08-16T22:25:32.860Z,30.08
2022-08-16T22:28:01.423Z,31.25
2022-08-16T22:30:32.023Z,30.02
2022-08-16T22:33:01.415Z,29.17
2022-08-16T22:35:29.668Z,29.20
2022-08-16T22:38:49.718Z,30.15
2022-08-16T22:40:47.260Z,31.15
2022-08-16T22:43:17.591Z,33.72
2022-08-16T22:45:47.555Z,35.85
2022-08-16T22:48:16.570Z,37.17
2022-08-16T22:50:48.111Z,42.50
2022-08-16T22:53:18.176Z,40.97
2022-08-16T22:55:47.040Z,40.85
2022-08-16T22:58:15.499Z,46.42
2022-08-16T23:00:45.124Z,45.97
2022-08-16T23:03:17.629Z,46.45
2022-08-16T23:05:50.539Z,47.63
2022-08-16T23:08:32.274Z,47.00
2022-08-16T23:11:09.031Z,44.35
2022-08-16T23:13:37.477Z,49.50
2022-08-16T23:16:11.481Z,54.25
2022-08-16T23:18:41.718Z,41.88
2022-08-16T23:21:11.803Z,37.42
2022-08-16T23:23:40.085Z,12.30
2022-08-16T23:26:45.254Z,11.90
2022-08-16T23:28:58.212Z,15.13
2022-08-16T23:31:26.402Z,14.68
2022-08-16T23:33:55.953Z,21.05
2022-08-16T23:36:24.066Z,19.13
2022-08-16T23:38:52.199Z,19.25
2022-08-16T23:41:20.498Z,17.58
2022-08-16T23:43:48.627Z,18.30
2022-08-16T23:46:19.523Z,20.10
2022-08-16T23:49:59.064Z,22.20
2022-08-16T23:51:37.499Z,22.10
2022-08-16T23:54:09.492Z,22.73
2022-08-16T23:56:40.532Z,23.38
2022-08-16T23:59:09.366Z,26.42
